Airport Name : North Bend Muni

Other Name : North Bend Muni

ICAO : KOTH

IATA : OTH

FAA : OTH

Latitude : 43.417103

Longitude : -124.246019

Country : United States

Local Date and Time : 18 Jun 2024 18:29

 

TAF (Terminal Aerodrome Forecast)

KOTH 182334Z 1900/1924 36019G26KT P6SM SCT250 FM190500 01008KT P6SM SCT015 FM191300 VRB03KT P6SM BKN015 FM191600 35007KT P6SM SCT015 FM191900 35015G25KT P6SM SKC

 

METAR (METeorological Aerodrome Report)

KOTH 190056Z 36019G27KT 10SM CLR 16/09 A2996 RMK AO2 PK WND 35028/0044 SLP145 T01610089

KOTH 182356Z 35022G27KT 10SM CLR 17/08 A2997 RMK AO2 PK WND 35027/2355 SLP147 T01670083 10172 20156 56008

KOTH 182256Z 35021G26KT 10SM CLR 17/08 A2998 RMK AO2 PK WND 35027/2236 SLP150 T01670083

KOTH 182156Z 35021G26KT 10SM CLR 17/09 A2998 RMK AO2 PK WND 35026/2156 SLP152 T01670089